Time;durP1;ratioP1;P1;durP2;ratioP2;P2;SDS_P1;SDS_P2;PMS_P1;PMS_P2;Temp;Humidity;BMP_temperature;BMP_pressure;BME280_temperature;BME280_humidity;BME280_pressure;Samples;Min_cycle;Max_cycle;Signal;HPM_P1;HPM_P2
2023/02/09 00:01:14;;;;;;;68.53;41.40;;;-1.50;83.60;;;;;;5013790;28;20240;-90
2023/02/09 00:03:41;;;;;;;68.17;42.43;;;-1.40;83.60;;;;;;5013916;28;20209;-91
2023/02/09 00:06:08;;;;;;;70.20;41.33;;;-1.40;83.60;;;;;;5013770;28;20256;-90
2023/02/09 00:08:35;;;;;;;77.67;42.53;;;-1.40;83.60;;;;;;5013821;28;20181;-90
2023/02/09 00:11:06;;;;;;;70.07;40.50;;;-1.50;83.50;;;;;;5014080;28;20197;-89
2023/02/09 00:13:32;;;;;;;68.47;40.77;;;-1.50;83.60;;;;;;5013833;28;20170;-90
2023/02/09 00:16:00;;;;;;;70.70;41.27;;;-1.60;83.60;;;;;;5014826;28;20272;-90
2023/02/09 00:18:27;;;;;;;65.53;38.03;;;-1.60;83.60;;;;;;5014740;28;20173;-90
2023/02/09 00:21:05;;;;;;;66.40;39.23;;;-1.60;83.60;;;;;;5014657;28;20205;-90
2023/02/09 00:23:32;;;;;;;65.27;40.60;;;-1.60;83.70;;;;;;5013541;28;20173;-90
2023/02/09 00:25:59;;;;;;;68.97;41.53;;;-1.70;83.70;;;;;;5014999;28;20228;-91
2023/02/09 00:28:25;;;;;;;59.00;40.17;;;-1.60;83.80;;;;;;5013615;28;20232;-90
2023/02/09 00:30:50;;;;;;;66.87;40.43;;;-1.70;83.80;;;;;;5013435;28;20199;-90
2023/02/09 00:33:16;;;;;;;64.13;40.97;;;-1.70;83.70;;;;;;5013856;28;20636;-91
2023/02/09 00:35:42;;;;;;;68.10;40.13;;;-1.60;83.80;;;;;;5015075;28;20238;-90
2023/02/09 00:38:09;;;;;;;69.50;42.57;;;-1.70;83.70;;;;;;5013512;28;20272;-91
2023/02/09 00:40:36;;;;;;;70.73;42.53;;;-1.70;83.70;;;;;;5013879;28;20656;-89
2023/02/09 00:43:02;;;;;;;66.93;41.57;;;-1.70;83.60;;;;;;5013549;28;20182;-91
2023/02/09 00:45:28;;;;;;;63.63;40.53;;;-1.80;83.50;;;;;;5013617;28;20204;-89
2023/02/09 00:47:54;;;;;;;73.03;42.33;;;-1.90;83.60;;;;;;5013176;28;20652;-89
2023/02/09 00:50:19;;;;;;;65.87;38.83;;;-1.90;83.70;;;;;;5013004;28;20189;-88
2023/02/09 00:52:45;;;;;;;68.47;41.57;;;-1.90;83.80;;;;;;5013003;28;20209;-88
2023/02/09 00:55:11;;;;;;;65.87;41.80;;;-1.90;83.80;;;;;;5013071;28;20536;-87
2023/02/09 00:57:36;;;;;;;67.43;41.20;;;-2.00;83.80;;;;;;5013002;28;20316;-89
2023/02/09 01:00:05;;;;;;;73.87;42.67;;;-2.00;83.90;;;;;;5012751;28;20231;-90
2023/02/09 01:02:30;;;;;;;64.47;38.60;;;-2.00;84.00;;;;;;5012922;28;20201;-88
2023/02/09 01:04:56;;;;;;;67.70;41.53;;;-2.10;84.00;;;;;;5012860;28;20175;-89
2023/02/09 01:07:21;;;;;;;68.03;41.23;;;-2.10;84.20;;;;;;5012734;28;20180;-87
2023/02/09 01:09:47;;;;;;;67.93;40.33;;;-2.10;84.40;;;;;;5012750;28;20181;-89
2023/02/09 01:12:12;;;;;;;67.57;40.70;;;-2.20;84.50;;;;;;5013199;28;20228;-90
2023/02/09 01:14:38;;;;;;;66.53;39.60;;;-2.10;84.70;;;;;;5012698;28;20220;-90
2023/02/09 01:17:04;;;;;;;68.87;39.10;;;-2.10;84.70;;;;;;5012770;28;20185;-89
2023/02/09 01:19:30;;;;;;;72.47;39.43;;;-2.20;84.80;;;;;;5013869;28;20200;-89
2023/02/09 01:21:56;;;;;;;65.10;37.83;;;-2.20;84.90;;;;;;5013201;28;20588;-90
2023/02/09 01:24:21;;;;;;;71.37;41.77;;;-2.10;84.90;;;;;;5012803;28;20208;-90
2023/02/09 01:26:47;;;;;;;71.87;38.00;;;-2.20;85.00;;;;;;5012574;28;20204;-90
2023/02/09 01:29:15;;;;;;;69.83;40.33;;;-2.20;85.10;;;;;;5012588;28;20189;-90
2023/02/09 01:31:41;;;;;;;79.83;40.37;;;-2.10;85.10;;;;;;5012767;28;20239;-90
2023/02/09 01:34:09;;;;;;;65.27;38.27;;;-2.10;85.10;;;;;;5012471;28;20638;-90
2023/02/09 01:36:35;;;;;;;67.83;39.33;;;-2.10;85.10;;;;;;5013268;28;20173;-89
2023/02/09 01:39:02;;;;;;;66.80;39.27;;;-2.10;85.10;;;;;;5012429;28;20633;-90
2023/02/09 01:41:28;;;;;;;65.87;40.03;;;-2.10;85.10;;;;;;5013511;28;20288;-90
2023/02/09 01:44:02;;;;;;;64.77;38.27;;;-2.10;84.90;;;;;;5012512;28;20710;-89
2023/02/09 01:46:34;;;;;;;66.10;38.37;;;-2.10;85.00;;;;;;5012446;28;20177;-90
2023/02/09 01:49:05;;;;;;;68.27;40.47;;;-2.10;84.90;;;;;;5012418;28;20170;-89
2023/02/09 01:51:43;;;;;;;68.17;38.53;;;-2.10;84.90;;;;;;5013437;28;20193;-90
2023/02/09 01:54:13;;;;;;;71.23;40.93;;;-2.10;84.90;;;;;;5012275;28;20169;-89
2023/02/09 01:56:44;;;;;;;70.03;40.13;;;-2.10;84.80;;;;;;5012310;28;20178;-90
2023/02/09 01:59:11;;;;;;;74.73;40.10;;;-2.10;84.80;;;;;;5012440;28;20169;-90
2023/02/09 02:01:37;;;;;;;65.03;39.27;;;-2.20;84.70;;;;;;5013370;28;20331;-89
2023/02/09 02:04:04;;;;;;;68.93;40.37;;;-2.20;84.80;;;;;;5012328;28;20271;-90
2023/02/09 02:06:31;;;;;;;66.73;39.10;;;-2.20;84.80;;;;;;5012425;28;20189;-90
2023/02/09 02:09:01;;;;;;;66.30;38.57;;;-2.20;84.90;;;;;;5013436;28;20645;-90
2023/02/09 02:11:28;;;;;;;67.30;39.93;;;-2.20;84.90;;;;;;5012739;28;20332;-91
2023/02/09 02:13:57;;;;;;;66.77;39.60;;;-2.20;84.90;;;;;;5012417;28;20207;-90
2023/02/09 02:16:47;;;;;;;62.83;38.93;;;-2.20;85.00;;;;;;5012424;28;20188;-90
2023/02/09 02:19:31;;;;;;;67.63;36.80;;;-2.20;85.00;;;;;;5012349;28;20179;-90
2023/02/09 02:22:38;;;;;;;67.03;39.50;;;-2.20;85.00;;;;;;5012123;28;20197;-91
2023/02/09 02:25:22;;;;;;;62.57;37.63;;;-2.30;85.00;;;;;;5013267;28;20161;-90
2023/02/09 02:28:27;;;;;;;68.60;35.43;;;-2.20;85.10;;;;;;5011950;28;20196;-90
2023/02/09 02:31:08;;;;;;;66.40;36.47;;;-2.20;85.20;;;;;;5011988;28;20242;-92
2023/02/09 02:33:39;;;;;;;64.57;36.53;;;-2.20;85.10;;;;;;5012072;28;20180;-90
2023/02/09 02:36:13;;;;;;;64.53;36.20;;;-2.20;85.20;;;;;;5012228;28;20188;-89
2023/02/09 02:38:52;;;;;;;63.33;35.60;;;-2.20;85.30;;;;;;5011974;28;20179;-90
2023/02/09 02:42:46;;;;;;;65.37;35.43;;;-2.30;85.40;;;;;;5011799;28;20249;-90
2023/02/09 02:44:17;;;;;;;53.70;35.10;;;-2.20;85.40;;;;;;5013010;28;20199;-90
2023/02/09 02:46:48;;;;;;;62.73;37.33;;;-2.30;85.40;;;;;;5011888;28;20646;-91
2023/02/09 02:49:39;;;;;;;63.40;35.70;;;-2.30;85.50;;;;;;5015894;28;20168;-90
2023/02/09 02:52:08;;;;;;;66.50;36.60;;;-2.40;85.40;;;;;;5015311;28;20201;-90
2023/02/09 02:54:38;;;;;;;64.63;37.47;;;-2.40;85.60;;;;;;5015254;28;20177;-90
2023/02/09 02:57:21;;;;;;;62.13;37.47;;;-2.40;85.60;;;;;;5015393;28;20195;-90
2023/02/09 02:59:53;;;;;;;63.83;36.83;;;-2.40;85.60;;;;;;5015217;28;20254;-88
2023/02/09 03:02:27;;;;;;;63.07;36.73;;;-2.40;85.50;;;;;;5015298;28;20198;-90
2023/02/09 03:04:56;;;;;;;62.00;37.00;;;-2.30;85.50;;;;;;5015168;28;20203;-90
2023/02/09 03:07:21;;;;;;;62.37;37.23;;;-2.30;85.40;;;;;;5015156;28;20277;-90
2023/02/09 03:09:53;;;;;;;58.10;35.47;;;-2.30;85.30;;;;;;5014927;28;20264;-90
2023/02/09 03:13:03;;;;;;;56.93;35.83;;;-2.30;85.30;;;;;;5016207;28;20212;-89
2023/02/09 03:15:51;;;;;;;58.20;34.80;;;-2.30;85.10;;;;;;5010198;28;20184;-90
2023/02/09 03:18:28;;;;;;;57.07;34.70;;;-2.40;84.90;;;;;;5016056;28;20208;-90
2023/02/09 03:21:14;;;;;;;57.67;35.43;;;-2.50;84.80;;;;;;5014655;28;20335;-90
2023/02/09 03:23:55;;;;;;;54.27;34.43;;;-2.50;84.80;;;;;;5014652;28;20165;-90
2023/02/09 03:26:26;;;;;;;56.43;35.30;;;-2.50;84.70;;;;;;5014846;28;20192;-90
2023/02/09 03:28:55;;;;;;;58.13;37.07;;;-2.50;84.80;;;;;;5015980;28;20165;-89
2023/02/09 03:31:21;;;;;;;62.20;34.93;;;-2.60;84.70;;;;;;5014369;28;20671;-88
2023/02/09 03:33:49;;;;;;;55.30;35.97;;;-2.60;84.60;;;;;;5015602;28;20184;-89
2023/02/09 03:36:17;;;;;;;58.50;34.83;;;-2.70;84.80;;;;;;5015800;28;20585;-90
2023/02/09 03:38:42;;;;;;;57.50;35.27;;;-2.70;84.90;;;;;;5014407;28;20185;-90
2023/02/09 03:41:08;;;;;;;55.80;34.10;;;-2.70;85.10;;;;;;5014280;28;20227;-89
2023/02/09 03:46:18;;;;;;;57.43;33.60;;;-2.80;85.10;;;;;;5015935;28;20183;-90
2023/02/09 03:48:43;;;;;;;54.50;34.00;;;-2.70;85.10;;;;;;5014242;28;20276;-88
2023/02/09 03:51:09;;;;;;;58.47;34.10;;;-2.80;85.10;;;;;;5014236;28;20240;-89
2023/02/09 03:53:35;;;;;;;60.67;35.50;;;-2.80;85.30;;;;;;5014331;28;20180;-90
2023/02/09 03:56:02;;;;;;;55.93;33.77;;;-2.80;85.40;;;;;;5015200;28;20223;-89
2023/02/09 03:58:28;;;;;;;61.87;33.00;;;-2.80;85.50;;;;;;5015009;28;20192;-89
2023/02/09 04:00:53;;;;;;;57.33;33.10;;;-2.80;85.70;;;;;;5014252;28;20205;-89
2023/02/09 04:03:19;;;;;;;58.47;33.10;;;-2.80;85.80;;;;;;5014104;28;20182;-90
2023/02/09 04:05:44;;;;;;;57.10;33.33;;;-2.70;85.90;;;;;;5014032;28;20289;-90
2023/02/09 04:08:10;;;;;;;49.80;30.87;;;-2.70;85.90;;;;;;5015128;28;20256;-89
2023/02/09 04:10:35;;;;;;;58.93;33.30;;;-2.70;85.90;;;;;;5014210;28;20191;-89
2023/02/09 04:13:01;;;;;;;52.17;30.60;;;-2.70;85.90;;;;;;5013890;28;20191;-90
2023/02/09 04:15:26;;;;;;;56.57;32.67;;;-2.60;85.90;;;;;;5014842;28;20191;-90
2023/02/09 04:17:52;;;;;;;51.10;30.63;;;-2.60;85.90;;;;;;5014041;28;20185;-90
2023/02/09 04:20:17;;;;;;;50.53;31.23;;;-2.60;85.90;;;;;;5014052;28;20555;-89
2023/02/09 04:22:43;;;;;;;52.53;31.27;;;-2.50;85.70;;;;;;5013687;28;20204;-89
2023/02/09 04:25:09;;;;;;;45.60;29.70;;;-2.50;85.50;;;;;;5013727;28;20236;-89
2023/02/09 04:27:35;;;;;;;47.10;29.60;;;-2.50;85.30;;;;;;5013825;28;20275;-89
2023/02/09 04:30:00;;;;;;;46.87;29.30;;;-2.60;85.30;;;;;;5013619;28;20637;-90
2023/02/09 04:32:26;;;;;;;48.33;30.33;;;-2.60;85.40;;;;;;5013568;28;20199;-89
2023/02/09 04:34:51;;;;;;;57.97;31.27;;;-2.50;85.40;;;;;;5013522;28;20656;-89
2023/02/09 04:37:17;;;;;;;44.37;28.73;;;-2.50;85.30;;;;;;5013976;28;20638;-89
2023/02/09 04:39:42;;;;;;;45.93;27.93;;;-2.50;85.30;;;;;;5013412;28;20207;-89
2023/02/09 04:42:08;;;;;;;50.50;30.00;;;-2.50;85.20;;;;;;5013177;28;20200;-89
2023/02/09 04:44:33;;;;;;;49.20;30.23;;;-2.50;85.20;;;;;;5013269;28;20232;-90
2023/02/09 04:46:59;;;;;;;50.07;31.00;;;-2.50;85.30;;;;;;5013155;28;20203;-89
2023/02/09 04:49:24;;;;;;;52.00;30.03;;;-2.40;85.20;;;;;;5015030;28;20209;-90
2023/02/09 04:51:50;;;;;;;47.30;29.33;;;-2.40;85.20;;;;;;5013366;28;20606;-90
2023/02/09 04:54:15;;;;;;;41.03;26.27;;;-2.30;85.00;;;;;;5013150;28;20186;-90
2023/02/09 04:56:41;;;;;;;44.57;27.47;;;-2.20;84.70;;;;;;5013071;28;20572;-90
2023/02/09 05:01:52;;;;;;;45.13;27.23;;;-2.10;84.50;;;;;;5014787;28;20248;-90
2023/02/09 05:04:17;;;;;;;41.90;25.83;;;-2.10;84.20;;;;;;5013173;28;20189;-90
2023/02/09 05:06:43;;;;;;;49.03;27.77;;;-2.10;84.10;;;;;;5013277;28;20192;-90
2023/02/09 05:09:08;;;;;;;43.57;26.37;;;-2.10;84.00;;;;;;5012910;28;20170;-90
2023/02/09 05:11:34;;;;;;;40.70;25.77;;;-2.10;83.90;;;;;;5012313;28;20661;-90
2023/02/09 05:13:59;;;;;;;44.13;25.87;;;-2.10;83.80;;;;;;5013010;28;20182;-87
2023/02/09 05:16:25;;;;;;;34.77;23.57;;;-2.00;83.70;;;;;;5012835;28;20210;-89
2023/02/09 05:18:50;;;;;;;45.27;27.23;;;-2.00;83.20;;;;;;5012584;28;20267;-90
2023/02/09 05:21:16;;;;;;;42.80;27.27;;;-1.90;83.00;;;;;;5012543;28;20212;-90
2023/02/09 05:23:41;;;;;;;40.50;24.90;;;-1.90;82.70;;;;;;5012649;28;20199;-90
2023/02/09 05:26:07;;;;;;;37.73;24.60;;;-1.80;82.50;;;;;;5012626;28;20200;-90
2023/02/09 05:28:33;;;;;;;39.67;23.97;;;-1.80;82.20;;;;;;5012493;28;20181;-89
2023/02/09 05:30:58;;;;;;;34.47;23.67;;;-1.80;82.10;;;;;;5012538;28;20699;-88
2023/02/09 05:33:24;;;;;;;36.87;23.97;;;-1.90;82.10;;;;;;5013835;28;20183;-90
2023/02/09 05:35:51;;;;;;;37.10;22.77;;;-2.00;82.40;;;;;;5013823;28;20183;-89
2023/02/09 05:38:17;;;;;;;32.20;21.93;;;-1.90;82.50;;;;;;5012594;28;20185;-90
2023/02/09 05:40:43;;;;;;;37.40;22.57;;;-1.80;82.40;;;;;;5012512;28;20227;-90
2023/02/09 05:43:09;;;;;;;33.40;22.73;;;-1.80;82.00;;;;;;5012572;28;20236;-92
2023/02/09 05:45:34;;;;;;;32.57;20.83;;;-1.80;82.30;;;;;;5012597;28;20604;-90
2023/02/09 05:48:00;;;;;;;32.03;21.60;;;-1.70;82.40;;;;;;5012664;28;20214;-90
2023/02/09 05:50:26;;;;;;;32.17;20.00;;;-1.70;82.30;;;;;;5012427;28;20175;-91
2023/02/09 05:52:51;;;;;;;33.97;21.80;;;-1.60;81.90;;;;;;5013613;28;20182;-91
2023/02/09 05:55:17;;;;;;;32.23;21.90;;;-1.60;81.40;;;;;;5012352;28;20271;-90
2023/02/09 05:57:42;;;;;;;33.30;23.10;;;-1.60;81.00;;;;;;5013753;28;20183;-90
2023/02/09 06:00:09;;;;;;;24.87;17.30;;;-1.50;80.70;;;;;;5012168;28;20199;-91
2023/02/09 06:02:35;;;;;;;23.23;18.07;;;-1.30;79.10;;;;;;5012600;28;20193;-89
2023/02/09 06:05:01;;;;;;;18.87;15.73;;;-1.00;77.40;;;;;;5012132;28;20184;-89
2023/02/09 06:07:26;;;;;;;19.73;17.17;;;-1.00;77.20;;;;;;5012374;28;20181;-89
2023/02/09 06:09:52;;;;;;;22.57;18.77;;;-1.00;77.20;;;;;;5012160;28;20177;-90
2023/02/09 06:12:17;;;;;;;26.97;20.23;;;-1.00;77.20;;;;;;5013282;28;20706;-89
2023/02/09 06:14:43;;;;;;;25.97;20.37;;;-1.00;77.40;;;;;;5013337;28;20181;-89
2023/02/09 06:17:08;;;;;;;26.87;20.10;;;-1.00;77.50;;;;;;5012289;28;20189;-90
2023/02/09 06:19:34;;;;;;;25.37;18.20;;;-0.90;77.00;;;;;;5013103;28;20197;-92
2023/02/09 06:21:59;;;;;;;20.90;17.83;;;-1.00;77.30;;;;;;5015035;28;20190;-91
2023/02/09 06:24:25;;;;;;;29.23;21.90;;;-1.00;77.30;;;;;;5016953;28;20635;-89
2023/02/09 06:26:51;;;;;;;23.77;19.50;;;-1.00;77.30;;;;;;5015512;28;20189;-90
2023/02/09 06:29:16;;;;;;;29.97;22.10;;;-1.10;78.00;;;;;;5015709;28;20178;-90
2023/02/09 06:31:42;;;;;;;29.07;20.97;;;-1.10;78.00;;;;;;5015489;28;20197;-90
2023/02/09 06:34:08;;;;;;;24.50;16.50;;;-1.00;77.90;;;;;;5015685;28;20201;-91
2023/02/09 06:36:33;;;;;;;29.63;21.73;;;-1.00;77.90;;;;;;5015970;28;20182;-89
2023/02/09 06:39:00;;;;;;;29.33;19.27;;;-1.00;77.80;;;;;;5015420;28;20173;-89
2023/02/09 06:41:25;;;;;;;19.07;16.47;;;-1.10;78.30;;;;;;5015407;28;20236;-90
2023/02/09 06:43:51;;;;;;;22.53;17.87;;;-1.10;78.40;;;;;;5015888;28;20215;-90
2023/02/09 06:46:16;;;;;;;26.77;19.47;;;-1.10;77.80;;;;;;5017240;28;20184;-90
2023/02/09 06:48:42;;;;;;;25.33;18.53;;;-1.10;78.00;;;;;;5015355;28;20200;-91
2023/02/09 06:51:12;;;;;;;23.20;18.60;;;-1.00;78.00;;;;;;5015328;28;20216;-92
2023/02/09 06:53:39;;;;;;;19.93;17.67;;;-1.00;77.70;;;;;;5016894;28;20697;-90
2023/02/09 06:56:05;;;;;;;26.17;19.10;;;-0.90;76.80;;;;;;5015452;28;20239;-91
2023/02/09 06:58:31;;;;;;;21.67;16.83;;;-0.90;77.20;;;;;;5016439;28;20205;-91
2023/02/09 07:01:05;;;;;;;19.23;15.63;;;-0.90;77.30;;;;;;5015557;28;20237;-91
2023/02/09 07:03:30;;;;;;;20.17;16.23;;;-1.00;77.40;;;;;;5015275;28;20260;-90
2023/02/09 07:06:05;;;;;;;25.17;18.97;;;-1.00;77.40;;;;;;5014994;28;20613;-90
2023/02/09 07:08:31;;;;;;;26.73;20.27;;;-1.00;77.30;;;;;;5015588;28;20171;-89
2023/02/09 07:10:59;;;;;;;21.33;17.67;;;-1.00;77.40;;;;;;5016396;28;20694;-92
2023/02/09 07:13:25;;;;;;;27.27;18.00;;;-1.00;77.60;;;;;;5015065;28;20546;-90
2023/02/09 07:15:57;;;;;;;23.17;18.07;;;-1.00;77.50;;;;;;5015012;28;20181;-90
2023/02/09 07:18:23;;;;;;;26.90;18.20;;;-1.00;77.50;;;;;;5016083;28;20187;-90
2023/02/09 07:21:04;;;;;;;20.67;17.03;;;-0.90;77.30;;;;;;5014632;28;20247;-90
2023/02/09 07:23:29;;;;;;;20.33;15.87;;;-0.80;76.90;;;;;;5014899;28;20179;-90
2023/02/09 07:25:55;;;;;;;21.07;17.57;;;-0.80;76.30;;;;;;5014589;28;20201;-89
2023/02/09 07:28:21;;;;;;;20.83;17.57;;;-0.90;77.00;;;;;;5014688;28;20173;-90
2023/02/09 07:30:48;;;;;;;25.70;19.23;;;-0.80;76.80;;;;;;5014637;28;20292;-89
2023/02/09 07:33:14;;;;;;;24.07;19.73;;;-0.80;76.90;;;;;;5013987;28;20295;-90
2023/02/09 07:35:40;;;;;;;19.97;17.40;;;-0.70;75.90;;;;;;5014335;28;20206;-91
2023/02/09 07:38:06;;;;;;;22.50;18.50;;;-0.70;76.40;;;;;;5014464;28;20216;-90
2023/02/09 07:40:31;;;;;;;24.43;19.20;;;-0.70;76.40;;;;;;5014148;28;20205;-89
2023/02/09 07:42:57;;;;;;;28.47;17.40;;;-0.70;76.60;;;;;;5014405;28;20264;-91
2023/02/09 07:45:22;;;;;;;26.13;19.47;;;-0.70;76.20;;;;;;5014368;28;20208;-91
2023/02/09 07:47:47;;;;;;;20.23;17.27;;;-0.60;75.50;;;;;;5014209;28;20264;-90
2023/02/09 07:50:13;;;;;;;26.07;19.43;;;-0.60;76.20;;;;;;5014387;28;20185;-91
2023/02/09 07:52:39;;;;;;;25.23;18.13;;;-0.60;75.80;;;;;;5014008;28;20232;-91
2023/02/09 07:55:05;;;;;;;27.50;19.20;;;-0.60;75.70;;;;;;5014097;28;20228;-91
2023/02/09 07:57:31;;;;;;;17.10;15.27;;;-0.50;75.70;;;;;;5014055;28;20178;-90
2023/02/09 07:59:57;;;;;;;21.73;19.17;;;-0.50;75.10;;;;;;5015122;28;20280;-92
2023/02/09 08:02:35;;;;;;;24.43;21.03;;;-0.50;75.10;;;;;;5013801;28;20355;-89
2023/02/09 08:05:01;;;;;;;22.43;19.53;;;-0.40;75.30;;;;;;5014370;28;20647;-91
2023/02/09 08:07:27;;;;;;;20.20;16.87;;;-0.40;74.90;;;;;;5019298;28;20169;-89
2023/02/09 08:09:53;;;;;;;19.23;17.30;;;-0.30;75.20;;;;;;5015397;28;20188;-88
2023/02/09 08:12:58;;;;;;;17.80;15.87;;;-0.30;74.60;;;;;;5014296;28;20209;-89
2023/02/09 08:15:07;;;;;;;19.07;16.80;;;-0.30;75.10;;;;;;5015401;28;20196;-88
2023/02/09 08:17:32;;;;;;;21.70;18.50;;;-0.30;74.90;;;;;;5013877;28;20216;-90
2023/02/09 08:20:03;;;;;;;23.23;17.17;;;-0.20;74.50;;;;;;5015550;28;20233;-90
2023/02/09 08:22:33;;;;;;;22.43;18.77;;;-0.10;74.20;;;;;;5014719;28;20202;-90
2023/02/09 08:25:01;;;;;;;23.40;19.40;;;-0.10;74.10;;;;;;5014628;28;20723;-89
2023/02/09 08:27:27;;;;;;;23.57;19.67;;;-0.10;74.60;;;;;;5014720;28;20245;-91
2023/02/09 08:29:52;;;;;;;26.47;21.00;;;-0.10;74.40;;;;;;5014244;28;20186;-91
2023/02/09 08:32:18;;;;;;;22.20;19.80;;;0.00;74.70;;;;;;5015713;28;20683;-91
2023/02/09 08:34:43;;;;;;;21.60;19.30;;;0.00;74.10;;;;;;5018164;28;20178;-90
2023/02/09 08:37:09;;;;;;;24.57;19.23;;;0.00;74.10;;;;;;5014227;28;20193;-91
2023/02/09 08:39:34;;;;;;;24.97;20.03;;;0.10;74.30;;;;;;5015422;28;20197;-91
2023/02/09 08:42:00;;;;;;;24.23;19.10;;;0.10;74.40;;;;;;5017268;28;20200;-91
2023/02/09 08:44:26;;;;;;;23.73;20.23;;;0.10;74.40;;;;;;5017002;28;20183;-91
2023/02/09 08:46:51;;;;;;;24.30;20.03;;;0.20;74.20;;;;;;5024412;28;20161;-92
2023/02/09 08:49:17;;;;;;;20.57;18.47;;;0.20;73.50;;;;;;5031059;28;20216;-92
2023/02/09 08:51:42;;;;;;;21.57;17.67;;;0.30;74.40;;;;;;5029722;28;20261;-92
2023/02/09 08:54:08;;;;;;;24.00;20.10;;;0.30;74.40;;;;;;5022437;28;20182;-92
2023/02/09 08:56:33;;;;;;;19.27;17.23;;;0.40;74.00;;;;;;5015469;28;20184;-91
2023/02/09 08:58:59;;;;;;;17.37;15.57;;;0.40;73.30;;;;;;5022242;28;20272;-93
2023/02/09 09:01:24;;;;;;;21.47;18.53;;;0.50;72.60;;;;;;5020952;28;20213;-92
2023/02/09 09:03:50;;;;;;;22.10;19.67;;;0.50;72.70;;;;;;5013969;28;20237;-88
2023/02/09 09:06:15;;;;;;;21.73;19.57;;;0.60;71.90;;;;;;5012957;28;20178;-91
2023/02/09 09:08:41;;;;;;;21.80;17.77;;;0.70;72.30;;;;;;5013306;28;20219;-90
2023/02/09 09:11:11;;;;;;;23.20;18.67;;;0.70;72.60;;;;;;5014026;28;20197;-90
2023/02/09 09:13:40;;;;;;;22.43;19.30;;;0.80;72.00;;;;;;5014053;28;20694;-89
2023/02/09 09:16:06;;;;;;;23.77;21.17;;;0.80;72.30;;;;;;5012991;28;20180;-90
2023/02/09 09:18:32;;;;;;;24.27;19.93;;;0.80;72.40;;;;;;5013394;28;20182;-91
2023/02/09 09:20:57;;;;;;;23.80;20.67;;;0.80;72.60;;;;;;5013178;28;20248;-89
2023/02/09 09:23:23;;;;;;;22.93;20.57;;;0.80;72.70;;;;;;5012903;28;20172;-89
2023/02/09 09:25:49;;;;;;;23.37;20.83;;;0.90;73.00;;;;;;5012931;28;20650;-90
2023/02/09 09:28:15;;;;;;;28.43;20.60;;;0.90;72.50;;;;;;5012629;28;20170;-91
2023/02/09 09:30:40;;;;;;;24.07;20.73;;;1.00;72.10;;;;;;5012841;28;20178;-92
2023/02/09 09:33:06;;;;;;;25.77;20.00;;;1.00;71.60;;;;;;5013151;28;20673;-92
2023/02/09 09:35:31;;;;;;;25.23;19.47;;;1.00;71.10;;;;;;5014103;28;20183;-89
2023/02/09 09:37:57;;;;;;;21.67;19.30;;;1.10;71.00;;;;;;5014451;28;20164;-88
2023/02/09 09:40:30;;;;;;;23.17;20.27;;;1.20;71.90;;;;;;5012202;28;20198;-88
2023/02/09 09:42:59;;;;;;;20.20;17.50;;;1.20;71.80;;;;;;5012752;28;20174;-89
2023/02/09 09:45:27;;;;;;;24.53;19.63;;;1.30;72.10;;;;;;5016163;28;20173;-91
2023/02/09 09:47:55;;;;;;;22.93;20.60;;;1.30;72.10;;;;;;5013005;28;20190;-91
2023/02/09 09:50:31;;;;;;;21.57;19.47;;;1.40;72.50;;;;;;5015512;28;20234;-90
2023/02/09 09:53:00;;;;;;;22.97;20.60;;;1.40;72.50;;;;;;5020740;28;20206;-91
2023/02/09 09:55:28;;;;;;;21.73;19.43;;;1.50;71.10;;;;;;5014856;28;20175;-88
2023/02/09 09:57:56;;;;;;;22.40;19.73;;;1.50;70.80;;;;;;5015960;28;20228;-90
2023/02/09 10:00:25;;;;;;;27.10;21.20;;;1.50;71.50;;;;;;5017720;28;20195;-90
2023/02/09 10:02:51;;;;;;;23.27;20.77;;;1.50;71.50;;;;;;5018284;28;20172;-92
2023/02/09 10:05:25;;;;;;;23.93;21.40;;;1.50;71.40;;;;;;5018423;28;20207;-90
2023/02/09 10:08:09;;;;;;;23.47;20.70;;;1.50;71.30;;;;;;5018570;28;20169;-91
2023/02/09 10:10:34;;;;;;;21.93;19.60;;;1.50;71.60;;;;;;5017533;28;20172;-92
2023/02/09 10:13:06;;;;;;;22.30;19.93;;;1.60;70.70;;;;;;5018887;28;20211;-91
2023/02/09 10:15:34;;;;;;;24.63;21.93;;;1.70;72.00;;;;;;5018260;28;20185;-93
2023/02/09 10:18:00;;;;;;;23.17;20.83;;;1.80;71.10;;;;;;5017711;28;20271;-91
2023/02/09 10:20:47;;;;;;;24.83;21.10;;;1.80;71.40;;;;;;5017693;28;20208;-91
2023/02/09 10:23:20;;;;;;;23.87;21.43;;;1.80;71.10;;;;;;5017234;28;20177;-90
2023/02/09 10:26:06;;;;;;;24.43;21.67;;;1.90;71.70;;;;;;5018393;28;20193;-92
2023/02/09 10:28:46;;;;;;;23.43;21.00;;;1.90;71.10;;;;;;5017393;28;20188;-92
2023/02/09 10:31:33;;;;;;;18.93;16.97;;;2.00;71.90;;;;;;5023143;28;20197;-94
2023/02/09 10:34:12;;;;;;;23.87;21.57;;;2.00;71.40;;;;;;5016817;28;20177;-91
2023/02/09 10:37:08;;;;;;;22.53;20.27;;;2.00;70.10;;;;;;5018439;28;20162;-91
2023/02/09 10:39:34;;;;;;;22.23;19.93;;;2.10;70.10;;;;;;5017347;28;20174;-91
2023/02/09 10:42:23;;;;;;;23.70;21.13;;;2.10;70.70;;;;;;5016896;28;20200;-91
2023/02/09 10:44:51;;;;;;;24.23;21.60;;;2.10;71.30;;;;;;5016708;28;20180;-94
2023/02/09 10:47:20;;;;;;;23.90;21.07;;;2.20;71.10;;;;;;5016961;28;20177;-91
2023/02/09 10:50:06;;;;;;;24.27;21.67;;;2.30;71.00;;;;;;5015775;28;20264;-92
2023/02/09 10:52:35;;;;;;;21.63;19.43;;;2.30;71.30;;;;;;5020926;28;20623;-92
2023/02/09 10:55:20;;;;;;;25.87;19.57;;;2.40;71.50;;;;;;5024633;28;20639;-92
2023/02/09 10:57:46;;;;;;;24.73;21.97;;;2.40;71.10;;;;;;5031728;28;20173;-92
2023/02/09 11:00:14;;;;;;;23.63;20.90;;;2.50;70.60;;;;;;5017607;28;20216;-92
2023/02/09 11:02:47;;;;;;;22.10;19.67;;;2.60;70.80;;;;;;5017293;28;20247;-91
2023/02/09 11:05:33;;;;;;;22.50;20.20;;;2.50;70.40;;;;;;5029401;28;20186;-90
2023/02/09 11:08:15;;;;;;;21.07;18.87;;;2.60;70.50;;;;;;5015363;28;20190;-92
2023/02/09 11:10:46;;;;;;;22.60;20.23;;;2.50;71.60;;;;;;5015672;28;20188;-91
2023/02/09 11:13:23;;;;;;;27.37;21.80;;;2.60;72.70;;;;;;5016265;28;20268;-90
2023/02/09 11:16:05;;;;;;;21.63;19.37;;;2.50;72.60;;;;;;5017217;28;20172;-91
2023/02/09 11:18:33;;;;;;;24.50;21.47;;;2.60;71.90;;;;;;5029183;28;20252;-92
2023/02/09 11:21:06;;;;;;;31.00;23.20;;;2.80;70.60;;;;;;5024933;28;20221;-92
2023/02/09 11:23:49;;;;;;;25.97;21.80;;;2.90;71.80;;;;;;5027694;28;20173;-93
2023/02/09 11:26:19;;;;;;;24.97;22.00;;;2.90;71.50;;;;;;5017305;28;20189;-92
2023/02/09 11:29:20;;;;;;;25.57;22.87;;;2.90;71.50;;;;;;5016413;28;20174;-92
2023/02/09 11:32:11;;;;;;;20.83;18.73;;;2.90;71.40;;;;;;5019676;28;20190;-93
2023/02/09 11:34:55;;;;;;;28.70;22.37;;;3.00;71.10;;;;;;5015918;28;20208;-88
2023/02/09 11:37:39;;;;;;;22.80;20.53;;;3.00;71.20;;;;;;5014917;28;20169;-92
2023/02/09 11:40:11;;;;;;;24.73;20.90;;;3.00;71.50;;;;;;5015883;28;20189;-91
2023/02/09 11:42:42;;;;;;;24.13;21.73;;;3.00;70.20;;;;;;5014840;28;20193;-90
2023/02/09 11:45:50;;;;;;;23.47;21.10;;;2.90;70.80;;;;;;5015323;28;20227;-90
2023/02/09 11:48:23;;;;;;;26.90;22.43;;;3.00;70.20;;;;;;4920498;29;20235;-90
2023/02/09 11:51:07;;;;;;;25.57;22.40;;;3.10;70.40;;;;;;4920379;29;20197;-91
2023/02/09 11:53:47;;;;;;;22.50;20.10;;;3.20;70.90;;;;;;4982142;28;20185;-90
2023/02/09 11:56:16;;;;;;;23.93;20.87;;;3.10;70.90;;;;;;5015752;28;20165;-89
2023/02/09 11:58:46;;;;;;;24.30;21.83;;;3.20;70.80;;;;;;5014115;28;20184;-90
2023/02/09 12:01:20;;;;;;;24.73;21.70;;;3.30;71.10;;;;;;5014122;28;20205;-91
2023/02/09 12:04:15;;;;;;;29.03;21.57;;;3.20;71.20;;;;;;5016126;28;20153;-90
2023/02/09 12:06:46;;;;;;;23.40;19.73;;;3.20;70.80;;;;;;4973842;28;20255;-91
2023/02/09 12:09:49;;;;;;;24.40;21.90;;;3.20;70.80;;;;;;5015698;28;20169;-91
2023/02/09 12:12:36;;;;;;;21.87;19.50;;;3.20;72.00;;;;;;5015517;28;20204;-91
2023/02/09 12:15:01;;;;;;;27.90;22.40;;;3.20;71.90;;;;;;5015560;28;20173;-90
2023/02/09 12:17:27;;;;;;;23.83;20.97;;;3.10;71.60;;;;;;5015151;28;20183;-92
2023/02/09 12:20:00;;;;;;;26.20;22.57;;;3.10;71.40;;;;;;5014188;28;20591;-90
2023/02/09 12:22:35;;;;;;;22.83;20.37;;;3.00;71.50;;;;;;5015022;28;20190;-93
2023/02/09 12:25:13;;;;;;;24.77;20.17;;;3.10;72.50;;;;;;5014691;28;20172;-92
2023/02/09 12:28:02;;;;;;;18.60;16.73;;;3.00;73.10;;;;;;5014645;28;20216;-91
2023/02/09 12:30:39;;;;;;;23.00;19.03;;;3.00;72.50;;;;;;5014402;28;20542;-91
2023/02/09 12:33:25;;;;;;;29.00;21.40;;;2.90;72.50;;;;;;5014672;28;20181;-91
2023/02/09 12:36:09;;;;;;;22.33;19.47;;;3.00;73.20;;;;;;5013972;28;20185;-91
2023/02/09 12:38:50;;;;;;;23.00;20.53;;;3.00;72.30;;;;;;5015260;28;20177;-91
2023/02/09 12:41:23;;;;;;;22.17;19.73;;;3.00;72.50;;;;;;5014582;28;20209;-90
2023/02/09 12:43:49;;;;;;;28.03;21.10;;;3.00;73.10;;;;;;5014934;28;20177;-91
2023/02/09 12:46:45;;;;;;;28.63;21.77;;;3.00;74.00;;;;;;5014724;28;20200;-90
2023/02/09 12:49:10;;;;;;;23.90;19.53;;;3.00;73.70;;;;;;5015622;28;20176;-91
2023/02/09 12:51:50;;;;;;;20.50;17.37;;;2.90;74.40;;;;;;5014972;28;20728;-90